createdAt,value
2018-01-19T00:00:53.865Z,91.55
2018-01-19T00:03:24.632Z,91.50
2018-01-19T00:05:55.378Z,91.19
2018-01-19T00:08:26.120Z,91.48
2018-01-19T00:10:56.876Z,91.02
2018-01-19T00:13:27.648Z,91.34
2018-01-19T00:15:58.422Z,91.56
2018-01-19T00:18:29.177Z,91.89
2018-01-19T00:20:59.920Z,92.08
2018-01-19T00:23:30.689Z,91.95
2018-01-19T00:26:01.558Z,92.21
2018-01-19T00:28:32.305Z,93.00
2018-01-19T00:31:03.048Z,93.29
2018-01-19T00:33:33.813Z,93.31
2018-01-19T00:36:04.548Z,93.73
2018-01-19T00:38:35.325Z,93.73
2018-01-19T00:41:06.062Z,93.88
2018-01-19T00:43:36.831Z,94.18
2018-01-19T00:46:07.574Z,94.15
2018-01-19T00:48:38.353Z,94.24
2018-01-19T00:51:09.104Z,94.38
2018-01-19T00:53:39.864Z,94.56
2018-01-19T00:56:10.592Z,94.11
2018-01-19T00:58:41.344Z,93.99
2018-01-19T01:01:12.097Z,93.93
2018-01-19T01:03:42.857Z,93.75
2018-01-19T01:06:13.612Z,93.69
2018-01-19T01:08:44.366Z,93.72
2018-01-19T01:11:15.109Z,93.79
2018-01-19T01:13:45.884Z,93.71
2018-01-19T01:16:16.629Z,93.82
2018-01-19T01:18:47.412Z,93.70
2018-01-19T01:21:18.188Z,93.74
2018-01-19T01:23:48.948Z,93.62
2018-01-19T01:26:19.691Z,93.66
2018-01-19T01:28:50.472Z,93.71
2018-01-19T01:31:21.200Z,93.71
2018-01-19T01:33:51.982Z,93.46
2018-01-19T01:36:22.729Z,93.50
2018-01-19T01:38:53.494Z,93.56
2018-01-19T01:41:24.239Z,93.44
2018-01-19T01:43:55.004Z,93.49
2018-01-19T01:46:25.736Z,93.37
2018-01-19T01:49:08.760Z,93.47
2018-01-19T01:51:39.574Z,93.65
2018-01-19T01:54:10.305Z,93.87
2018-01-19T01:56:41.045Z,93.98
2018-01-19T01:59:11.793Z,93.91
2018-01-19T02:01:42.541Z,93.83
2018-01-19T02:04:13.300Z,93.88
2018-01-19T02:06:44.045Z,93.88
2018-01-19T02:09:14.808Z,93.50
2018-01-19T02:11:45.575Z,93.56
2018-01-19T02:14:16.322Z,93.54
2018-01-19T02:16:47.069Z,93.63
2018-01-19T02:19:17.836Z,93.77
2018-01-19T02:21:48.615Z,93.72
2018-01-19T02:24:19.378Z,93.88
2018-01-19T02:26:50.130Z,93.69
2018-01-19T02:29:20.925Z,93.80
2018-01-19T02:31:51.714Z,93.83
2018-01-19T02:34:22.503Z,93.63
2018-01-19T02:36:53.257Z,93.93
2018-01-19T02:39:24.044Z,93.89
2018-01-19T02:41:54.815Z,93.50
2018-01-19T02:44:25.572Z,93.40
2018-01-19T02:46:56.345Z,93.63
2018-01-19T02:49:27.096Z,93.60
2018-01-19T02:51:57.847Z,93.80
2018-01-19T02:54:28.625Z,93.54
2018-01-19T02:56:59.392Z,93.64
2018-01-19T02:59:30.168Z,93.40
2018-01-19T03:02:00.916Z,93.62
2018-01-19T03:04:31.677Z,93.78
2018-01-19T03:07:02.413Z,93.61
2018-01-19T03:09:33.185Z,93.84
2018-01-19T03:12:03.941Z,93.64
2018-01-19T03:14:34.712Z,93.67
2018-01-19T03:17:05.489Z,94.17
2018-01-19T03:19:36.271Z,93.81
2018-01-19T03:22:07.021Z,93.74
2018-01-19T03:24:37.800Z,91.99
2018-01-19T03:27:08.559Z,91.97
2018-01-19T03:29:39.321Z,92.63
2018-01-19T03:32:10.077Z,93.57
2018-01-19T03:34:40.906Z,94.67
2018-01-19T03:37:11.671Z,95.27
2018-01-19T03:39:42.440Z,95.29
2018-01-19T03:42:13.202Z,95.74
2018-01-19T03:44:43.980Z,96.03
2018-01-19T03:47:14.737Z,95.89
2018-01-19T03:49:45.542Z,96.00
2018-01-19T03:52:16.251Z,95.76
2018-01-19T03:54:47.014Z,95.64
2018-01-19T03:57:17.760Z,95.57
2018-01-19T03:59:48.525Z,96.01
2018-01-19T04:02:19.278Z,95.99
2018-01-19T04:04:50.041Z,95.97
2018-01-19T04:07:20.804Z,95.92
2018-01-19T04:09:51.651Z,96.19
2018-01-19T04:12:22.435Z,96.46
2018-01-19T04:14:53.197Z,96.57
2018-01-19T04:17:23.950Z,97.03
2018-01-19T04:19:54.727Z,97.16
2018-01-19T04:22:25.549Z,97.32
2018-01-19T04:24:56.325Z,97.47
2018-01-19T04:27:27.080Z,97.45
2018-01-19T04:29:57.836Z,97.59
2018-01-19T04:32:28.621Z,97.48
2018-01-19T04:34:59.392Z,97.56
2018-01-19T04:37:30.129Z,97.65
2018-01-19T04:40:00.912Z,97.55
2018-01-19T04:42:31.660Z,97.64
2018-01-19T04:45:02.446Z,97.68
2018-01-19T04:47:33.183Z,97.70
2018-01-19T04:50:03.953Z,97.71
2018-01-19T04:52:34.709Z,97.68
2018-01-19T04:55:05.470Z,97.66
2018-01-19T04:57:36.226Z,97.48
2018-01-19T05:00:06.989Z,97.24
2018-01-19T05:02:37.720Z,96.62
2018-01-19T05:05:08.491Z,96.16
2018-01-19T05:07:39.261Z,96.08
2018-01-19T05:10:10.033Z,96.00
2018-01-19T05:12:40.815Z,95.95
2018-01-19T05:15:11.593Z,95.92
2018-01-19T05:17:42.346Z,95.92
2018-01-19T05:20:13.100Z,95.63
2018-01-19T05:22:43.856Z,95.42
2018-01-19T05:25:14.612Z,95.34
2018-01-19T05:27:45.344Z,95.37
2018-01-19T05:30:16.121Z,94.69
2018-01-19T05:32:46.869Z,93.94
2018-01-19T05:35:17.620Z,93.83
2018-01-19T05:37:48.359Z,93.66
2018-01-19T05:40:19.140Z,93.77
2018-01-19T05:42:49.896Z,93.90
2018-01-19T05:45:20.652Z,93.85
2018-01-19T05:47:51.379Z,94.05
2018-01-19T05:50:22.136Z,94.23
2018-01-19T05:52:52.879Z,94.32
2018-01-19T05:55:23.640Z,94.44
2018-01-19T05:57:54.378Z,94.26
2018-01-19T06:00:25.136Z,94.43
2018-01-19T06:02:55.886Z,94.34
2018-01-19T06:05:26.714Z,93.97
2018-01-19T06:07:57.428Z,94.34
2018-01-19T06:10:28.209Z,93.96
2018-01-19T06:12:59.232Z,94.37
2018-01-19T06:15:29.989Z,94.37
2018-01-19T06:18:00.737Z,94.36
2018-01-19T06:20:31.504Z,94.29
2018-01-19T06:23:02.248Z,93.86
2018-01-19T06:25:33.017Z,93.73
2018-01-19T06:28:03.764Z,93.66
2018-01-19T06:30:34.540Z,93.27
2018-01-19T06:33:05.294Z,92.32
2018-01-19T06:35:36.061Z,92.22
2018-01-19T06:38:06.870Z,92.20
2018-01-19T06:40:37.584Z,92.28
2018-01-19T06:43:08.333Z,92.36
2018-01-19T06:45:39.088Z,92.39
2018-01-19T06:48:09.834Z,92.36
2018-01-19T06:50:40.609Z,92.02
2018-01-19T06:53:11.362Z,91.57
2018-01-19T06:55:42.114Z,91.96
2018-01-19T06:58:12.876Z,92.07
2018-01-19T07:00:43.650Z,91.56
2018-01-19T07:03:14.389Z,91.08
2018-01-19T07:05:45.161Z,91.09
2018-01-19T07:08:15.926Z,90.52
2018-01-19T07:10:46.683Z,91.25
2018-01-19T07:13:17.431Z,90.04
2018-01-19T07:15:48.173Z,89.05
2018-01-19T07:18:18.924Z,89.45
2018-01-19T07:20:49.665Z,88.57
2018-01-19T07:23:20.404Z,88.44
2018-01-19T07:25:51.177Z,87.93
2018-01-19T07:28:21.962Z,87.15
2018-01-19T07:30:52.721Z,87.57
2018-01-19T07:33:23.455Z,87.53
2018-01-19T07:35:54.225Z,86.91
2018-01-19T07:38:24.979Z,87.34
2018-01-19T07:40:55.774Z,87.29
2018-01-19T07:43:26.534Z,87.50
2018-01-19T07:45:57.319Z,88.00
2018-01-19T07:48:28.055Z,87.27
2018-01-19T07:50:58.853Z,86.82
2018-01-19T07:53:29.636Z,85.76
2018-01-19T07:56:00.434Z,85.69
2018-01-19T07:58:31.210Z,86.53
2018-01-19T08:01:02.072Z,86.37
2018-01-19T08:03:32.819Z,86.13
2018-01-19T08:06:03.607Z,85.31
2018-01-19T08:08:34.361Z,85.21
2018-01-19T08:11:05.262Z,85.31
2018-01-19T08:13:36.039Z,84.60
2018-01-19T08:16:06.870Z,84.36
2018-01-19T08:18:37.726Z,84.68
2018-01-19T08:21:08.477Z,85.66
2018-01-19T08:23:39.241Z,84.58
2018-01-19T08:26:09.996Z,85.82
2018-01-19T08:28:40.893Z,84.72
2018-01-19T08:31:11.645Z,85.15
2018-01-19T08:33:42.397Z,84.86
2018-01-19T08:36:13.148Z,83.35
2018-01-19T08:38:43.929Z,82.71
2018-01-19T08:41:14.684Z,82.12
2018-01-19T08:43:45.472Z,81.52
2018-01-19T08:46:16.232Z,81.19
2018-01-19T08:48:47.010Z,82.08
2018-01-19T08:51:17.781Z,81.88
2018-01-19T08:53:48.539Z,82.45
2018-01-19T08:56:19.304Z,82.38
2018-01-19T08:58:50.076Z,82.80
2018-01-19T09:01:20.850Z,82.42
2018-01-19T09:03:51.599Z,83.83
2018-01-19T09:06:22.381Z,82.91
2018-01-19T09:08:53.131Z,82.77
2018-01-19T09:11:23.904Z,81.98
2018-01-19T09:13:54.655Z,83.46
2018-01-19T09:16:25.413Z,82.38
2018-01-19T09:18:56.185Z,82.01
2018-01-19T09:21:26.949Z,84.54
2018-01-19T09:23:57.750Z,82.69
2018-01-19T09:26:28.525Z,82.49
2018-01-19T09:28:59.297Z,81.30
2018-01-19T09:31:30.047Z,82.45
2018-01-19T09:34:00.822Z,82.63
2018-01-19T09:36:31.574Z,81.93
2018-01-19T09:39:02.468Z,81.55
2018-01-19T09:41:33.218Z,82.14
2018-01-19T09:44:03.992Z,82.23
2018-01-19T09:46:34.785Z,79.68
2018-01-19T09:49:05.599Z,81.30
2018-01-19T09:51:36.368Z,80.59
2018-01-19T09:54:07.158Z,79.92
2018-01-19T09:56:37.924Z,81.95
2018-01-19T09:59:08.670Z,81.13
2018-01-19T10:01:39.428Z,81.04
2018-01-19T10:04:10.198Z,80.36
2018-01-19T10:06:41.007Z,81.09
2018-01-19T10:09:11.819Z,82.19
2018-01-19T10:11:42.604Z,79.06
2018-01-19T10:14:13.400Z,80.71
2018-01-19T10:16:44.178Z,79.71
2018-01-19T10:19:14.948Z,80.43
2018-01-19T10:21:45.712Z,79.01
2018-01-19T10:24:16.459Z,80.76
2018-01-19T10:26:47.201Z,79.01
2018-01-19T10:29:17.976Z,79.34
2018-01-19T10:31:48.760Z,80.06
2018-01-19T10:34:19.539Z,80.89
2018-01-19T10:36:50.284Z,81.34
2018-01-19T10:39:21.063Z,80.92
2018-01-19T10:41:51.829Z,80.68
2018-01-19T10:44:22.605Z,80.57
2018-01-19T10:46:53.356Z,80.63
2018-01-19T10:49:24.133Z,81.11
2018-01-19T10:51:54.903Z,81.92
2018-01-19T10:54:25.679Z,80.22
2018-01-19T10:57:03.545Z,81.15
2018-01-19T10:59:34.307Z,79.66
2018-01-19T11:02:05.052Z,81.87
2018-01-19T11:04:35.816Z,80.80
2018-01-19T11:07:06.600Z,81.74
2018-01-19T11:09:37.384Z,81.53
2018-01-19T11:12:08.160Z,80.90
2018-01-19T11:14:38.959Z,81.12
2018-01-19T11:17:09.720Z,80.74
2018-01-19T11:19:40.515Z,80.60
2018-01-19T11:22:11.317Z,80.25
2018-01-19T11:24:42.064Z,80.06
2018-01-19T11:27:12.825Z,81.06
2018-01-19T11:29:43.592Z,81.93
2018-01-19T11:32:14.348Z,80.21
2018-01-19T11:34:45.104Z,79.87
2018-01-19T11:37:15.866Z,79.56
2018-01-19T11:39:46.638Z,77.78
2018-01-19T11:42:17.400Z,76.77
2018-01-19T11:44:48.232Z,78.75
2018-01-19T11:47:18.989Z,75.91
2018-01-19T11:49:49.756Z,76.03
2018-01-19T11:52:20.525Z,78.05
2018-01-19T11:54:51.314Z,77.77
2018-01-19T11:57:22.064Z,77.51
2018-01-19T11:59:52.843Z,75.62
2018-01-19T12:02:30.235Z,76.14
2018-01-19T12:05:01.046Z,74.56
2018-01-19T12:07:31.799Z,74.81
2018-01-19T12:10:02.593Z,74.11
2018-01-19T12:12:33.361Z,74.26
2018-01-19T12:15:04.242Z,74.56
2018-01-19T12:17:35.056Z,75.54
2018-01-19T12:20:05.893Z,74.66
2018-01-19T12:22:36.655Z,74.23
2018-01-19T12:25:07.411Z,74.54
2018-01-19T12:27:38.173Z,73.82
2018-01-19T12:30:09.063Z,73.30
2018-01-19T12:32:40.735Z,75.32
2018-01-19T12:35:11.483Z,74.03
2018-01-19T12:37:42.249Z,73.49
2018-01-19T12:40:13.093Z,73.25
2018-01-19T12:42:43.870Z,72.30
2018-01-19T12:51:17.607Z,73.19
2018-01-19T12:53:49.176Z,71.35
2018-01-19T12:56:20.617Z,72.05
2018-01-19T12:58:51.411Z,72.03
2018-01-19T13:01:22.198Z,74.05
2018-01-19T13:03:52.958Z,72.46
2018-01-19T13:06:23.768Z,71.41
2018-01-19T13:08:54.528Z,71.40
2018-01-19T13:11:25.320Z,70.68
2018-01-19T13:13:56.104Z,71.85
2018-01-19T13:16:26.863Z,70.75
2018-01-19T13:18:57.612Z,69.48
2018-01-19T13:21:28.417Z,71.88
2018-01-19T13:23:59.169Z,69.48
2018-01-19T13:26:29.972Z,70.25
2018-01-19T13:29:00.733Z,69.56
2018-01-19T13:31:31.597Z,69.17
2018-01-19T13:34:02.336Z,68.40
2018-01-19T13:36:33.103Z,69.52
2018-01-19T13:39:03.864Z,70.14
2018-01-19T13:41:34.640Z,68.82
2018-01-19T13:44:05.400Z,69.34
2018-01-19T13:46:36.175Z,68.25
2018-01-19T13:49:06.929Z,67.20
2018-01-19T13:51:37.699Z,66.21
2018-01-19T13:54:08.463Z,68.06
2018-01-19T13:56:39.240Z,67.56
2018-01-19T13:59:09.999Z,67.86
2018-01-19T14:01:40.795Z,67.58
2018-01-19T14:04:11.557Z,67.29
2018-01-19T14:06:42.380Z,67.90
2018-01-19T14:09:13.152Z,67.41
2018-01-19T14:11:43.917Z,70.53
2018-01-19T14:14:14.682Z,68.28
2018-01-19T14:16:45.467Z,68.12
2018-01-19T14:19:16.224Z,69.04
2018-01-19T14:21:47.037Z,69.10
2018-01-19T14:24:17.881Z,69.73
2018-01-19T14:26:48.633Z,71.96
2018-01-19T14:29:19.384Z,73.06
2018-01-19T14:31:50.138Z,71.45
2018-01-19T14:34:20.880Z,71.75
2018-01-19T14:36:51.662Z,70.07
2018-01-19T14:39:22.456Z,69.76
2018-01-19T14:41:53.207Z,68.42
2018-01-19T14:44:23.973Z,67.22
2018-01-19T14:46:54.709Z,67.94
2018-01-19T14:49:25.459Z,69.03
2018-01-19T14:51:56.244Z,71.88
2018-01-19T14:54:27.022Z,73.30
2018-01-19T14:56:57.794Z,73.55
2018-01-19T14:59:28.624Z,73.72
2018-01-19T15:01:59.362Z,74.38
2018-01-19T15:04:30.100Z,74.86
2018-01-19T15:07:00.896Z,74.23
2018-01-19T15:09:31.675Z,74.03
2018-01-19T15:12:02.464Z,73.56
2018-01-19T15:14:33.211Z,73.11
2018-01-19T15:17:03.985Z,73.70
2018-01-19T15:19:34.719Z,73.50
2018-01-19T15:22:05.467Z,73.29
2018-01-19T15:24:36.228Z,74.42
2018-01-19T15:27:06.988Z,73.21
2018-01-19T15:29:37.724Z,74.73
2018-01-19T15:32:08.494Z,73.64
2018-01-19T15:34:39.223Z,73.68
2018-01-19T15:37:09.989Z,75.17
2018-01-19T15:39:40.721Z,76.45
2018-01-19T15:42:11.535Z,77.60
2018-01-19T15:44:42.271Z,78.33
2018-01-19T15:47:13.029Z,79.27
2018-01-19T15:49:43.772Z,79.29
2018-01-19T15:52:14.520Z,79.30
2018-01-19T15:54:45.272Z,79.14
2018-01-19T15:57:16.031Z,79.34
2018-01-19T15:59:46.769Z,79.74
2018-01-19T16:02:17.599Z,80.14
2018-01-19T16:04:48.344Z,80.30
2018-01-19T16:07:19.116Z,80.40
2018-01-19T16:09:49.856Z,80.92
2018-01-19T16:12:20.662Z,81.19
2018-01-19T16:14:51.472Z,81.90
2018-01-19T16:17:23.706Z,82.25
2018-01-19T16:19:54.711Z,82.96
2018-01-19T16:22:25.669Z,82.80
2018-01-19T16:24:56.669Z,82.53
2018-01-19T16:27:27.751Z,83.23
2018-01-19T16:29:58.689Z,84.39
2018-01-19T16:32:29.809Z,84.73
2018-01-19T16:35:00.606Z,84.48
2018-01-19T16:37:31.852Z,85.00
2018-01-19T16:40:02.905Z,85.81
2018-01-19T16:42:33.999Z,85.41
2018-01-19T16:45:04.973Z,85.76
2018-01-19T16:47:36.057Z,86.45
2018-01-19T16:50:06.828Z,87.38
2018-01-19T16:52:37.812Z,88.44
2018-01-19T16:55:08.547Z,88.85
2018-01-19T16:57:39.472Z,88.87
2018-01-19T17:00:10.425Z,89.19
2018-01-19T17:02:42.225Z,89.30
2018-01-19T17:05:13.022Z,90.18
2018-01-19T17:07:43.827Z,90.46
2018-01-19T17:10:15.674Z,90.36
2018-01-19T17:12:46.546Z,90.60
2018-01-19T17:15:17.296Z,91.12
2018-01-19T17:17:48.230Z,91.79
2018-01-19T17:20:18.983Z,91.93
2018-01-19T17:22:49.740Z,91.59
2018-01-19T17:25:20.533Z,91.45
2018-01-19T17:27:51.308Z,91.26
2018-01-19T17:30:23.747Z,91.16
2018-01-19T17:32:54.861Z,90.84
2018-01-19T17:35:25.643Z,90.45
2018-01-19T17:37:57.202Z,89.79
2018-01-19T17:40:27.983Z,90.00
2018-01-19T17:42:58.749Z,89.05
2018-01-19T17:45:29.501Z,88.70
2018-01-19T17:48:00.661Z,89.30
2018-01-19T17:50:31.497Z,90.81
2018-01-19T17:53:02.288Z,91.15
2018-01-19T17:55:33.033Z,91.45
2018-01-19T17:58:03.868Z,91.39
2018-01-19T18:00:34.648Z,91.16
2018-01-19T18:03:05.454Z,91.34
2018-01-19T18:05:36.604Z,91.54
2018-01-19T18:08:07.483Z,91.69
2018-01-19T18:10:38.322Z,92.33
2018-01-19T18:13:09.136Z,92.38
2018-01-19T18:15:39.936Z,92.08
2018-01-19T18:18:10.721Z,91.88
2018-01-19T18:20:41.512Z,91.41
2018-01-19T18:23:12.441Z,90.48
2018-01-19T18:25:43.295Z,89.20
2018-01-19T18:28:14.154Z,89.94
2018-01-19T18:30:45.424Z,89.86
2018-01-19T18:33:16.532Z,90.37
2018-01-19T18:35:47.375Z,90.70
2018-01-19T18:38:18.168Z,91.32
2018-01-19T18:40:48.946Z,91.28
2018-01-19T18:43:19.781Z,91.04
2018-01-19T18:45:50.560Z,91.03
2018-01-19T18:48:21.450Z,90.98
2018-01-19T18:50:52.655Z,90.65
2018-01-19T18:53:23.541Z,90.71
2018-01-19T18:55:54.788Z,91.14
2018-01-19T18:58:25.632Z,91.30
2018-01-19T19:00:56.893Z,91.70
2018-01-19T19:03:27.766Z,92.30
2018-01-19T19:05:58.644Z,92.63
2018-01-19T19:08:29.455Z,92.51
2018-01-19T19:11:00.318Z,92.13
2018-01-19T19:13:31.147Z,91.84
2018-01-19T19:16:01.936Z,91.66
2018-01-19T19:18:32.717Z,91.94
2018-01-19T19:21:03.631Z,91.23
2018-01-19T19:23:34.471Z,91.19
2018-01-19T19:26:05.277Z,90.96
2018-01-19T19:28:36.190Z,90.66
2018-01-19T19:31:07.082Z,90.79
2018-01-19T19:33:38.010Z,90.55
2018-01-19T19:36:08.903Z,90.00
2018-01-19T19:38:39.773Z,90.21
2018-01-19T19:41:10.784Z,90.24
2018-01-19T19:43:41.577Z,90.14
2018-01-19T19:46:12.475Z,90.46
2018-01-19T19:48:43.321Z,91.60
2018-01-19T19:51:14.343Z,91.65
2018-01-19T19:53:45.218Z,91.38
2018-01-19T19:56:16.400Z,90.81
2018-01-19T19:58:47.270Z,90.61
2018-01-19T20:01:18.069Z,89.57
2018-01-19T20:03:48.950Z,90.05
2018-01-19T20:06:19.838Z,90.26
2018-01-19T20:08:50.655Z,90.40
2018-01-19T20:11:24.785Z,90.35
2018-01-19T20:13:55.664Z,89.89
2018-01-19T20:16:26.472Z,89.53
2018-01-19T20:18:57.343Z,88.85
2018-01-19T20:21:28.162Z,88.78
2018-01-19T20:23:58.992Z,88.82
2018-01-19T20:26:29.859Z,88.94
2018-01-19T20:29:00.651Z,88.50
2018-01-19T20:31:31.499Z,87.98
2018-01-19T20:34:02.324Z,87.95
2018-01-19T20:36:33.078Z,87.99
2018-01-19T20:39:03.960Z,88.01
2018-01-19T20:41:34.792Z,87.87
2018-01-19T20:44:05.716Z,88.06
2018-01-19T20:46:36.505Z,88.61
2018-01-19T20:49:07.334Z,89.23
2018-01-19T20:51:38.187Z,90.32
2018-01-19T20:54:09.020Z,90.56
2018-01-19T20:56:39.896Z,91.38
2018-01-19T20:59:10.955Z,90.95
2018-01-19T21:01:41.742Z,91.85
2018-01-19T21:04:12.546Z,91.96
2018-01-19T21:06:43.360Z,93.15
2018-01-19T21:09:14.169Z,93.30
2018-01-19T21:11:46.020Z,93.71
2018-01-19T21:14:18.931Z,93.86
2018-01-19T21:16:49.851Z,93.57
2018-01-19T21:19:20.612Z,94.45
2018-01-19T21:21:51.431Z,94.52
2018-01-19T21:24:22.261Z,94.34
2018-01-19T21:26:52.991Z,94.43
2018-01-19T21:29:23.806Z,94.60
2018-01-19T21:31:54.600Z,94.73
2018-01-19T21:34:25.440Z,94.98
2018-01-19T21:36:56.264Z,95.08
2018-01-19T21:39:27.021Z,95.12
2018-01-19T21:42:00.185Z,95.20
2018-01-19T21:44:31.035Z,95.41
2018-01-19T21:47:01.830Z,95.63
2018-01-19T21:49:32.688Z,95.69
2018-01-19T21:52:03.457Z,95.69
2018-01-19T21:54:34.292Z,95.59
2018-01-19T21:57:05.085Z,95.60
2018-01-19T21:59:36.003Z,95.32
2018-01-19T22:02:06.756Z,95.32
2018-01-19T22:04:37.510Z,95.39
2018-01-19T22:07:08.459Z,95.43
2018-01-19T22:09:39.278Z,95.41
2018-01-19T22:12:10.036Z,95.79
2018-01-19T22:14:40.885Z,95.87
2018-01-19T22:17:11.737Z,96.07
2018-01-19T22:19:42.612Z,96.17
2018-01-19T22:22:13.431Z,96.15
2018-01-19T22:24:44.303Z,96.26
2018-01-19T22:27:15.142Z,96.35
2018-01-19T22:29:45.957Z,96.52
2018-01-19T22:32:17.260Z,96.59
2018-01-19T22:34:48.096Z,96.70
2018-01-19T22:37:18.900Z,96.79
2018-01-19T22:39:50.197Z,96.89
2018-01-19T22:42:21.056Z,96.86
2018-01-19T22:44:51.855Z,96.82
2018-01-19T22:47:23.729Z,96.83
2018-01-19T22:49:54.677Z,96.87
2018-01-19T22:52:25.444Z,96.87
2018-01-19T22:54:56.228Z,96.91
2018-01-19T22:57:27.431Z,97.02
2018-01-19T22:59:58.414Z,97.16
2018-01-19T23:02:29.219Z,97.13
2018-01-19T23:05:00.031Z,97.20
2018-01-19T23:07:31.349Z,97.17
2018-01-19T23:10:02.195Z,97.12
2018-01-19T23:12:33.088Z,97.15
2018-01-19T23:15:04.291Z,97.20
2018-01-19T23:17:35.212Z,97.14
2018-01-19T23:20:06.176Z,97.25
2018-01-19T23:22:37.084Z,97.36
2018-01-19T23:25:07.884Z,97.41
2018-01-19T23:27:38.703Z,97.40
2018-01-19T23:30:10.045Z,97.51
2018-01-19T23:32:41.653Z,97.49
2018-01-19T23:35:12.774Z,97.47
2018-01-19T23:37:43.703Z,97.48
2018-01-19T23:40:14.646Z,97.48
2018-01-19T23:42:45.572Z,97.52
2018-01-19T23:45:16.344Z,97.57
2018-01-19T23:47:47.158Z,97.53
2018-01-19T23:50:17.932Z,97.38
2018-01-19T23:52:48.704Z,97.42
2018-01-19T23:55:19.540Z,97.34
2018-01-19T23:57:50.332Z,97.32
